createdAt,value
2023-01-02T00:02:14.443Z,3.25
2023-01-02T00:04:41.615Z,3.33
2023-01-02T00:07:08.424Z,3.53
2023-01-02T00:09:35.193Z,3.65
2023-01-02T00:12:02.136Z,3.08
2023-01-02T00:14:28.954Z,2.67
2023-01-02T00:16:55.712Z,2.90
2023-01-02T00:19:22.578Z,3.08
2023-01-02T00:21:49.351Z,3.17
2023-01-02T00:24:16.098Z,3.53
2023-01-02T00:26:43.112Z,3.22
2023-01-02T00:29:10.076Z,2.92
2023-01-02T00:31:36.923Z,2.88
2023-01-02T00:34:03.785Z,3.28
2023-01-02T00:36:31.769Z,3.58
2023-01-02T00:38:58.579Z,2.22
2023-01-02T00:41:25.452Z,2.88
2023-01-02T00:43:52.439Z,2.40
2023-01-02T00:46:19.231Z,3.08
2023-01-02T00:48:46.008Z,2.33
2023-01-02T00:51:12.911Z,2.72
2023-01-02T00:53:39.764Z,2.45
2023-01-02T00:56:06.801Z,2.35
2023-01-02T00:58:33.889Z,2.78
2023-01-02T01:01:00.716Z,2.25
2023-01-02T01:03:27.693Z,3.10
2023-01-02T01:05:54.527Z,2.67
2023-01-02T01:08:21.681Z,3.33
2023-01-02T01:10:48.565Z,2.88
2023-01-02T01:13:15.360Z,2.63
2023-01-02T01:15:42.155Z,2.30
2023-01-02T01:18:09.046Z,2.50
2023-01-02T01:20:39.555Z,3.10
2023-01-02T01:23:06.444Z,2.92
2023-01-02T01:25:33.223Z,2.33
2023-01-02T01:28:00.029Z,2.92
2023-01-02T01:30:27.924Z,2.83
2023-01-02T01:32:54.763Z,2.60
2023-01-02T01:35:21.555Z,2.25
2023-01-02T01:37:48.340Z,2.28
2023-01-02T01:40:15.255Z,2.90
2023-01-02T01:42:42.215Z,3.25
2023-01-02T01:45:16.289Z,2.85
2023-01-02T01:47:53.590Z,2.85
2023-01-02T01:50:29.781Z,2.20
2023-01-02T01:53:06.483Z,3.35
2023-01-02T01:55:38.818Z,3.17
2023-01-02T01:58:15.930Z,2.65
2023-01-02T02:00:43.344Z,2.30
2023-01-02T02:03:17.350Z,2.70
2023-01-02T02:05:44.997Z,3.00
2023-01-02T02:08:36.340Z,3.08
2023-01-02T02:11:03.704Z,2.33
2023-01-02T02:13:32.172Z,3.13
2023-01-02T02:16:10.756Z,3.78
2023-01-02T02:19:04.513Z,3.55
2023-01-02T02:21:53.071Z,3.00
2023-01-02T02:24:57.252Z,2.72
2023-01-02T02:27:54.901Z,4.45
2023-01-02T02:30:32.889Z,4.65
2023-01-02T02:33:07.852Z,3.67
2023-01-02T02:36:13.033Z,2.35
2023-01-02T02:38:45.123Z,2.10
2023-01-02T02:41:27.069Z,2.90
2023-01-02T02:44:47.240Z,2.38
2023-01-02T02:47:23.719Z,1.90
2023-01-02T02:49:50.503Z,2.03
2023-01-02T02:52:39.989Z,2.97
2023-01-02T02:55:22.028Z,2.67
2023-01-02T02:57:51.759Z,2.20
2023-01-02T03:00:22.408Z,3.72
2023-01-02T03:02:49.326Z,2.70
2023-01-02T03:05:39.679Z,2.40
2023-01-02T03:08:16.891Z,2.28
2023-01-02T03:10:54.950Z,2.33
2023-01-02T03:13:43.261Z,2.13
2023-01-02T03:16:36.880Z,2.45
2023-01-02T03:19:09.524Z,2.38
2023-01-02T03:21:46.189Z,2.60
2023-01-02T03:24:16.695Z,2.83
2023-01-02T03:26:47.931Z,2.05
2023-01-02T03:29:25.175Z,2.22
2023-01-02T03:31:55.692Z,2.22
2023-01-02T03:34:26.938Z,2.63
2023-01-02T03:37:01.124Z,2.35
2023-01-02T03:39:32.319Z,2.63
2023-01-02T03:42:07.569Z,2.85
2023-01-02T03:44:43.852Z,2.35
2023-01-02T03:47:16.396Z,2.22
2023-01-02T03:49:47.942Z,2.10
2023-01-02T03:52:15.008Z,2.97
2023-01-02T03:54:42.135Z,2.10
2023-01-02T03:57:08.936Z,2.22
2023-01-02T03:59:42.105Z,2.50
2023-01-02T04:02:30.738Z,2.63
2023-01-02T04:05:04.838Z,1.77
2023-01-02T04:07:56.293Z,2.47
2023-01-02T04:10:25.891Z,2.03
2023-01-02T04:12:56.556Z,2.55
2023-01-02T04:15:26.436Z,2.15
2023-01-02T04:18:07.193Z,1.95
2023-01-02T04:20:40.473Z,2.25
2023-01-02T04:23:15.412Z,2.15
2023-01-02T04:25:54.869Z,3.30
2023-01-02T04:28:30.541Z,2.10
2023-01-02T04:31:13.045Z,2.30
2023-01-02T04:33:57.607Z,2.28
2023-01-02T04:36:24.586Z,2.50
2023-01-02T04:38:51.579Z,2.72
2023-01-02T04:41:29.422Z,2.50
2023-01-02T04:43:57.206Z,2.13
2023-01-02T04:46:25.478Z,3.03
2023-01-02T04:48:52.886Z,2.25
2023-01-02T04:51:19.725Z,2.47
2023-01-02T04:53:50.379Z,2.47
2023-01-02T04:56:18.028Z,2.75
2023-01-02T04:58:46.098Z,2.80
2023-01-02T05:01:18.159Z,2.22
2023-01-02T05:03:47.807Z,2.67
2023-01-02T05:06:15.259Z,2.20
2023-01-02T05:08:42.432Z,2.13
2023-01-02T05:11:18.853Z,2.03
2023-01-02T05:13:46.031Z,2.25
2023-01-02T05:16:12.903Z,2.10
2023-01-02T05:18:39.818Z,2.13
2023-01-02T05:21:30.039Z,1.98
2023-01-02T05:23:58.725Z,2.58
2023-01-02T05:26:25.769Z,2.38
2023-01-02T05:28:53.827Z,2.42
2023-01-02T05:31:21.101Z,2.30
2023-01-02T05:33:54.534Z,2.47
2023-01-02T05:36:22.271Z,1.83
2023-01-02T05:38:49.094Z,2.03
2023-01-02T05:41:16.898Z,2.17
2023-01-02T05:43:43.759Z,2.67
2023-01-02T05:46:12.995Z,2.60
2023-01-02T05:48:40.898Z,2.22
2023-01-02T05:51:09.785Z,3.08
2023-01-02T05:53:37.203Z,3.08
2023-01-02T05:56:05.049Z,2.20
2023-01-02T05:58:34.007Z,2.80
2023-01-02T06:01:11.726Z,2.47
2023-01-02T06:03:39.223Z,2.58
2023-01-02T06:06:10.641Z,2.33
2023-01-02T06:08:38.529Z,2.25
2023-01-02T06:11:06.312Z,3.22
2023-01-02T06:13:35.349Z,2.53
2023-01-02T06:16:03.794Z,2.88
2023-01-02T06:18:32.110Z,3.25
2023-01-02T06:21:13.396Z,1.98
2023-01-02T06:23:41.203Z,2.60
2023-01-02T06:26:18.655Z,2.38
2023-01-02T06:28:49.290Z,2.45
2023-01-02T06:31:18.441Z,2.25
2023-01-02T06:33:45.520Z,2.50
2023-01-02T06:36:17.201Z,3.15
2023-01-02T06:38:45.438Z,2.55
2023-01-02T06:41:13.397Z,2.35
2023-01-02T06:43:46.462Z,2.25
2023-01-02T06:46:16.400Z,2.35
2023-01-02T06:48:43.357Z,2.75
2023-01-02T06:51:13.182Z,2.53
2023-01-02T06:53:41.861Z,3.45
2023-01-02T06:56:10.113Z,2.45
2023-01-02T06:58:38.381Z,2.53
2023-01-02T07:01:06.998Z,2.30
2023-01-02T07:03:34.253Z,2.85
2023-01-02T07:06:06.481Z,2.13
2023-01-02T07:08:33.921Z,2.60
2023-01-02T07:11:26.942Z,3.08
2023-01-02T07:13:55.081Z,2.70
2023-01-02T07:16:23.191Z,1.83
2023-01-02T07:18:52.102Z,2.47
2023-01-02T07:21:18.935Z,2.40
2023-01-02T07:23:46.331Z,2.85
2023-01-02T07:26:13.266Z,2.60
2023-01-02T07:28:40.336Z,2.65
2023-01-02T07:31:11.473Z,2.15
2023-01-02T07:33:38.495Z,1.77
2023-01-02T07:36:07.663Z,2.70
2023-01-02T07:38:34.898Z,2.38
2023-01-02T07:41:01.933Z,2.13
2023-01-02T07:43:28.762Z,2.60
2023-01-02T07:46:01.388Z,2.15
2023-01-02T07:48:30.455Z,2.83
2023-01-02T07:51:05.037Z,2.90
2023-01-02T07:53:32.525Z,2.42
2023-01-02T07:56:01.702Z,2.17
2023-01-02T07:58:28.809Z,3.03
2023-01-02T08:01:01.450Z,2.05
2023-01-02T08:03:32.299Z,2.83
2023-01-02T08:06:07.039Z,2.85
2023-01-02T08:08:35.619Z,3.20
2023-01-02T08:11:13.641Z,2.72
2023-01-02T08:13:40.635Z,3.25
2023-01-02T08:16:10.907Z,2.42
2023-01-02T08:18:38.202Z,1.98
2023-01-02T08:21:06.198Z,2.40
2023-01-02T08:23:34.081Z,2.47
2023-01-02T08:26:02.772Z,2.38
2023-01-02T08:28:30.329Z,4.38
2023-01-02T08:30:57.329Z,4.30
2023-01-02T08:33:24.153Z,3.17
2023-01-02T08:35:51.025Z,2.60
2023-01-02T08:38:18.356Z,2.05
2023-01-02T08:40:45.231Z,2.83
2023-01-02T08:43:12.146Z,2.63
2023-01-02T08:45:38.889Z,2.40
2023-01-02T08:48:21.037Z,3.00
2023-01-02T08:50:49.710Z,3.00
2023-01-02T08:53:16.663Z,3.10
2023-01-02T08:55:43.465Z,2.90
2023-01-02T08:58:10.841Z,2.75
2023-01-02T09:00:37.701Z,2.47
2023-01-02T09:03:04.616Z,2.28
2023-01-02T09:05:31.592Z,2.80
2023-01-02T09:07:59.181Z,2.17
2023-01-02T09:10:26.115Z,2.83
2023-01-02T09:12:53.402Z,2.35
2023-01-02T09:15:20.680Z,2.30
2023-01-02T09:17:47.441Z,2.10
2023-01-02T09:20:14.327Z,2.33
2023-01-02T09:22:41.320Z,2.78
2023-01-02T09:25:08.690Z,2.58
2023-01-02T09:27:35.563Z,1.90
2023-01-02T09:30:02.410Z,2.47
2023-01-02T09:32:30.227Z,2.78
2023-01-02T09:34:57.138Z,2.80
2023-01-02T09:37:23.926Z,1.83
2023-01-02T09:39:50.782Z,3.20
2023-01-02T09:42:18.049Z,2.50
2023-01-02T09:45:01.689Z,2.47
2023-01-02T09:47:33.861Z,2.15
2023-01-02T09:50:03.576Z,2.88
2023-01-02T09:52:44.235Z,3.05
2023-01-02T09:55:15.898Z,3.08
2023-01-02T09:58:11.414Z,3.35
2023-01-02T10:00:38.961Z,2.92
2023-01-02T10:03:26.079Z,2.88
2023-01-02T10:06:02.080Z,2.17
2023-01-02T10:08:56.614Z,2.95
2023-01-02T10:11:40.174Z,2.83
2023-01-02T10:14:44.974Z,1.80
2023-01-02T10:17:18.174Z,2.55
2023-01-02T10:19:51.167Z,3.05
2023-01-02T10:22:22.644Z,2.25
2023-01-02T10:24:55.896Z,2.55
2023-01-02T10:27:29.783Z,2.40
2023-01-02T10:30:04.126Z,2.15
2023-01-02T10:32:34.035Z,2.78
2023-01-02T10:35:16.052Z,1.98
2023-01-02T10:37:42.911Z,2.50
2023-01-02T10:40:10.006Z,2.80
2023-01-02T10:42:36.915Z,2.78
2023-01-02T10:45:04.308Z,2.60
2023-01-02T10:47:38.944Z,3.05
2023-01-02T10:50:08.484Z,2.60
2023-01-02T10:52:45.869Z,3.30
2023-01-02T10:55:12.964Z,2.50
2023-01-02T10:57:45.187Z,2.95
2023-01-02T11:00:27.467Z,2.17
2023-01-02T11:03:05.542Z,2.25
2023-01-02T11:05:32.945Z,2.33
2023-01-02T11:08:01.421Z,1.98
2023-01-02T11:10:37.449Z,2.65
2023-01-02T11:13:09.349Z,2.55
2023-01-02T11:15:49.226Z,2.55
2023-01-02T11:18:28.238Z,3.47
2023-01-02T11:21:03.886Z,3.10
2023-01-02T11:23:36.541Z,2.55
2023-01-02T11:26:04.898Z,2.55
2023-01-02T11:28:35.074Z,2.40
2023-01-02T11:31:13.889Z,2.70
2023-01-02T11:33:42.405Z,2.45
2023-01-02T11:36:12.027Z,2.70
2023-01-02T11:38:50.958Z,2.63
2023-01-02T11:41:56.448Z,2.67
2023-01-02T11:44:33.219Z,2.72
2023-01-02T11:47:01.983Z,2.67
2023-01-02T11:49:48.471Z,2.60
2023-01-02T11:52:21.200Z,2.80
2023-01-02T11:54:57.233Z,2.67
2023-01-02T11:57:48.001Z,2.47
2023-01-02T12:00:18.548Z,2.47
2023-01-02T12:02:53.429Z,2.30
2023-01-02T12:05:43.094Z,2.38
2023-01-02T12:08:22.967Z,2.70
2023-01-02T12:11:02.596Z,2.30
2023-01-02T12:14:10.393Z,2.72
2023-01-02T12:16:43.294Z,2.63
2023-01-02T12:20:08.714Z,2.33
2023-01-02T12:23:02.764Z,2.90
2023-01-02T12:25:47.849Z,2.55
2023-01-02T12:28:55.055Z,2.58
2023-01-02T12:31:46.634Z,2.78
2023-01-02T12:34:57.807Z,2.75
2023-01-02T12:37:27.664Z,2.72
2023-01-02T12:40:24.525Z,2.55
2023-01-02T12:43:04.459Z,2.78
2023-01-02T12:46:16.096Z,2.95
2023-01-02T12:49:07.653Z,2.45
2023-01-02T12:51:49.129Z,3.83
2023-01-02T12:54:40.175Z,2.97
2023-01-02T12:57:31.021Z,2.60
2023-01-02T13:00:35.068Z,3.35
2023-01-02T13:03:44.732Z,2.65
2023-01-02T13:06:43.497Z,2.78
2023-01-02T13:09:23.251Z,3.15
2023-01-02T13:12:26.782Z,3.13
2023-01-02T13:15:02.870Z,2.90
2023-01-02T13:17:48.382Z,2.60
2023-01-02T13:20:30.911Z,2.65
2023-01-02T13:23:37.022Z,3.35
2023-01-02T13:26:06.105Z,3.03
2023-01-02T13:28:33.935Z,2.90
2023-01-02T13:33:54.468Z,3.28
2023-01-02T13:36:26.505Z,2.67
2023-01-02T13:38:59.887Z,2.22
2023-01-02T13:41:30.406Z,2.75
2023-01-02T13:44:00.787Z,3.13
2023-01-02T13:47:02.565Z,2.90
2023-01-02T13:49:24.052Z,2.42
2023-01-02T13:51:59.884Z,2.85
2023-01-02T13:54:36.523Z,2.40
2023-01-02T13:57:17.106Z,2.72
2023-01-02T14:00:01.534Z,1.88
2023-01-02T14:02:28.653Z,2.20
2023-01-02T14:04:56.049Z,2.10
2023-01-02T14:07:26.173Z,1.70
2023-01-02T14:10:19.501Z,2.10
2023-01-02T14:12:54.096Z,1.45
2023-01-02T14:15:24.695Z,1.67
2023-01-02T14:18:08.837Z,1.58
2023-01-02T14:20:38.580Z,1.05
2023-01-02T14:23:09.335Z,1.00
2023-01-02T14:25:49.282Z,0.85
2023-01-02T14:28:26.349Z,1.23
2023-01-02T14:30:54.573Z,1.00
2023-01-02T14:33:35.663Z,1.40
2023-01-02T14:38:52.784Z,1.25
2023-01-02T14:42:09.450Z,1.33
2023-01-02T14:44:54.860Z,1.90
2023-01-02T14:47:39.238Z,1.58
2023-01-02T14:50:13.374Z,1.20
2023-01-02T14:52:44.823Z,1.67
2023-01-02T14:55:24.394Z,1.42
2023-01-02T14:57:53.715Z,2.80
2023-01-02T15:00:23.748Z,5.38
2023-01-02T15:02:56.115Z,2.73
2023-01-02T15:05:49.673Z,2.80
2023-01-02T15:08:21.232Z,1.83
2023-01-02T15:11:20.148Z,1.80
2023-01-02T15:14:04.185Z,2.28
2023-01-02T15:16:41.274Z,2.28
2023-01-02T15:19:19.920Z,1.45
2023-01-02T15:21:48.188Z,1.88
2023-01-02T15:24:27.820Z,1.85
2023-01-02T15:26:54.721Z,2.05
2023-01-02T15:29:27.494Z,1.88
2023-01-02T15:32:04.906Z,2.33
2023-01-02T15:34:33.675Z,10.40
2023-01-02T15:37:07.080Z,2.90
2023-01-02T15:39:43.608Z,3.40
2023-01-02T15:42:39.559Z,3.30
2023-01-02T15:45:16.039Z,3.13
2023-01-02T15:47:48.929Z,4.20
2023-01-02T15:50:17.636Z,2.83
2023-01-02T15:52:46.369Z,3.10
2023-01-02T15:55:18.009Z,2.95
2023-01-02T15:57:51.895Z,2.38
2023-01-02T16:00:48.437Z,3.03
2023-01-02T16:04:02.103Z,1.95
2023-01-02T16:06:31.702Z,2.15
2023-01-02T16:09:02.094Z,2.10
2023-01-02T16:11:29.811Z,2.40
2023-01-02T16:14:21.978Z,1.80
2023-01-02T16:16:59.454Z,1.50
2023-01-02T16:19:37.398Z,1.60
2023-01-02T16:22:27.651Z,1.45
2023-01-02T16:25:04.442Z,1.67
2023-01-02T16:27:34.392Z,1.48
2023-01-02T16:30:13.878Z,1.27
2023-01-02T16:32:47.738Z,1.98
2023-01-02T16:35:30.052Z,1.33
2023-01-02T16:38:20.816Z,1.30
2023-01-02T16:40:59.828Z,1.48
2023-01-02T16:43:30.661Z,1.98
2023-01-02T16:45:58.627Z,1.80
2023-01-02T16:48:28.315Z,1.77
2023-01-02T16:50:57.041Z,1.60
2023-01-02T16:53:32.994Z,1.58
2023-01-02T16:56:00.594Z,1.83
2023-01-02T16:58:29.468Z,1.75
2023-01-02T17:00:56.720Z,1.67
2023-01-02T17:03:26.723Z,2.13
2023-01-02T17:06:01.553Z,2.00
2023-01-02T17:08:32.130Z,1.63
2023-01-02T17:11:00.359Z,1.88
2023-01-02T17:13:28.381Z,2.10
2023-01-02T17:15:55.913Z,1.40
2023-01-02T17:18:23.161Z,1.77
2023-01-02T17:20:50.553Z,1.90
2023-01-02T17:23:19.428Z,2.05
2023-01-02T17:25:47.280Z,1.60
2023-01-02T17:28:14.880Z,1.73
2023-01-02T17:30:44.783Z,1.50
2023-01-02T17:33:13.044Z,1.57
2023-01-02T17:35:41.602Z,1.30
2023-01-02T17:38:08.471Z,1.25
2023-01-02T17:40:36.823Z,1.73
2023-01-02T17:43:04.361Z,1.75
2023-01-02T17:45:31.205Z,1.75
2023-01-02T17:48:02.699Z,1.77
2023-01-02T17:50:34.706Z,1.30
2023-01-02T17:53:01.579Z,1.35
2023-01-02T17:55:28.462Z,1.23
2023-01-02T17:57:55.401Z,1.67
2023-01-02T18:00:23.497Z,1.55
2023-01-02T18:02:52.474Z,1.27
2023-01-02T18:05:20.650Z,1.70
2023-01-02T18:07:47.490Z,1.63
2023-01-02T18:10:19.453Z,1.25
2023-01-02T18:12:49.760Z,1.20
2023-01-02T18:15:17.894Z,1.27
2023-01-02T18:17:44.696Z,1.35
2023-01-02T18:20:14.142Z,1.65
2023-01-02T18:22:48.542Z,1.17
2023-01-02T18:25:26.807Z,1.33
2023-01-02T18:28:00.955Z,1.40
2023-01-02T18:30:28.534Z,1.65
2023-01-02T18:33:17.382Z,1.30
2023-01-02T18:35:58.775Z,1.48
2023-01-02T18:38:34.132Z,1.55
2023-01-02T18:41:11.466Z,1.35
2023-01-02T18:43:39.321Z,1.75
2023-01-02T18:47:01.912Z,1.30
2023-01-02T18:49:25.970Z,1.77
2023-01-02T18:52:05.806Z,1.63
2023-01-02T18:54:32.742Z,1.38
2023-01-02T18:57:17.440Z,1.08
2023-01-02T18:59:46.939Z,1.40
2023-01-02T19:02:44.525Z,1.40
2023-01-02T19:05:38.204Z,1.58
2023-01-02T19:08:08.009Z,1.45
2023-01-02T19:10:38.774Z,1.40
2023-01-02T19:13:27.321Z,1.25
2023-01-02T19:15:57.790Z,0.70
2023-01-02T19:18:33.752Z,0.80
2023-01-02T19:21:09.770Z,0.82
2023-01-02T19:23:58.290Z,0.80
2023-01-02T19:26:35.881Z,0.93
2023-01-02T19:29:12.008Z,0.98
2023-01-02T19:32:05.114Z,1.10
2023-01-02T19:34:48.001Z,1.00
2023-01-02T19:37:31.998Z,1.40
2023-01-02T19:40:02.928Z,1.02
2023-01-02T19:42:31.978Z,1.00
2023-01-02T19:45:05.644Z,1.20
2023-01-02T19:47:34.838Z,1.05
2023-01-02T19:50:02.818Z,1.00
2023-01-02T19:52:30.524Z,1.20
2023-01-02T19:54:57.650Z,1.20
2023-01-02T19:57:25.215Z,0.90
2023-01-02T19:59:53.270Z,1.17
2023-01-02T20:02:22.285Z,1.50
2023-01-02T20:04:52.128Z,0.88
2023-01-02T20:07:20.237Z,1.33
2023-01-02T20:09:47.246Z,1.38
2023-01-02T20:12:32.948Z,1.38
2023-01-02T20:15:06.205Z,1.13
2023-01-02T20:17:34.101Z,1.23
2023-01-02T20:20:01.567Z,5.35
2023-01-02T20:22:28.903Z,1.67
2023-01-02T20:24:56.924Z,1.00
2023-01-02T20:27:24.932Z,1.20
2023-01-02T20:29:55.035Z,1.10
2023-01-02T20:32:23.164Z,1.00
2023-01-02T20:34:55.953Z,1.25
2023-01-02T20:37:22.910Z,1.23
2023-01-02T20:39:51.543Z,1.33
2023-01-02T20:42:19.060Z,1.10
2023-01-02T20:44:47.026Z,1.27
2023-01-02T20:47:17.611Z,1.40
2023-01-02T20:49:44.613Z,1.27
2023-01-02T20:52:11.567Z,1.25
2023-01-02T20:54:38.511Z,1.00
2023-01-02T20:57:05.373Z,1.65
2023-01-02T20:59:32.269Z,0.95
2023-01-02T21:01:59.316Z,1.10
2023-01-02T21:04:32.590Z,1.05
2023-01-02T21:07:03.916Z,0.90
2023-01-02T21:09:30.678Z,1.30
2023-01-02T21:11:57.513Z,0.93
2023-01-02T21:14:27.650Z,1.00
2023-01-02T21:16:55.981Z,1.30
2023-01-02T21:19:22.770Z,1.33
2023-01-02T21:21:49.619Z,0.90
2023-01-02T21:24:16.500Z,1.10
2023-01-02T21:26:43.381Z,2.58
2023-01-02T21:29:10.154Z,1.50
2023-01-02T21:31:37.255Z,1.50
2023-01-02T21:34:05.906Z,1.13
2023-01-02T21:36:34.912Z,0.90
2023-01-02T21:39:01.931Z,1.05
2023-01-02T21:41:47.481Z,1.42
2023-01-02T21:44:14.397Z,1.15
2023-01-02T21:46:41.222Z,1.42
2023-01-02T21:49:08.179Z,1.88
2023-01-02T21:51:35.955Z,1.42
2023-01-02T21:54:02.761Z,1.52
2023-01-02T21:56:30.564Z,1.48
2023-01-02T21:58:57.994Z,1.90
2023-01-02T22:01:24.912Z,1.88
2023-01-02T22:03:53.797Z,1.65
2023-01-02T22:06:20.623Z,1.70
2023-01-02T22:08:47.477Z,1.45
2023-01-02T22:11:32.952Z,1.60
2023-01-02T22:13:59.772Z,2.20
2023-01-02T22:16:26.684Z,2.10
2023-01-02T22:18:53.567Z,1.67
2023-01-02T22:21:20.521Z,1.48
2023-01-02T22:23:47.351Z,1.27
2023-01-02T22:26:14.306Z,1.30
2023-01-02T22:28:43.313Z,1.60
2023-01-02T22:31:11.321Z,1.38
2023-01-02T22:33:38.636Z,1.30
2023-01-02T22:36:05.886Z,1.20
2023-01-02T22:38:32.725Z,1.98
2023-01-02T22:41:00.056Z,1.40
2023-01-02T22:43:36.887Z,1.50
2023-01-02T22:46:07.275Z,1.50
2023-01-02T22:48:37.130Z,1.30
2023-01-02T22:51:07.009Z,1.45
2023-01-02T22:53:36.236Z,1.27
2023-01-02T22:56:14.845Z,1.45
2023-01-02T22:58:41.748Z,1.30
2023-01-02T23:01:35.512Z,1.55
2023-01-02T23:04:02.440Z,1.15
2023-01-02T23:06:29.600Z,1.13
2023-01-02T23:08:56.712Z,1.02
2023-01-02T23:11:23.861Z,1.17
2023-01-02T23:13:56.391Z,0.75
2023-01-02T23:16:42.634Z,1.15
2023-01-02T23:19:15.920Z,1.88
2023-01-02T23:21:54.074Z,1.20
2023-01-02T23:24:33.555Z,1.45
2023-01-02T23:27:03.974Z,1.30
2023-01-02T23:29:31.710Z,1.02
2023-01-02T23:31:58.950Z,0.93
2023-01-02T23:34:27.579Z,0.90
2023-01-02T23:36:56.087Z,0.70
2023-01-02T23:39:25.091Z,1.10
2023-01-02T23:41:52.664Z,1.20
2023-01-02T23:44:20.709Z,0.80
2023-01-02T23:46:47.848Z,0.82
2023-01-02T23:49:16.323Z,0.95
2023-01-02T23:51:44.625Z,1.10
2023-01-02T23:54:13.890Z,0.95
2023-01-02T23:56:42.379Z,0.95
2023-01-02T23:59:12.092Z,0.90
